Time;durP1;ratioP1;P1;durP2;ratioP2;P2;SDS_P1;SDS_P2;PMS_P1;PMS_P2;Temp;Humidity;BMP_temperature;BMP_pressure;BME280_temperature;BME280_humidity;BME280_pressure;Samples;Min_cycle;Max_cycle;Signal;HPM_P1;HPM_P2
2023/08/24 00:01:58;;;;;;;1.90;1.80;;;25.30;90.30;;;;;;4957299;29;20481;-93
2023/08/24 00:04:25;;;;;;;1.97;1.77;;;25.30;90.30;;;;;;4957727;29;20480;-93
2023/08/24 00:06:52;;;;;;;2.27;2.17;;;25.30;90.30;;;;;;4957512;29;20448;-93
2023/08/24 00:09:19;;;;;;;1.90;1.80;;;25.20;90.30;;;;;;4958387;29;20458;-93
2023/08/24 00:11:46;;;;;;;1.90;1.80;;;25.20;90.30;;;;;;4957472;28;21166;-92
2023/08/24 00:14:13;;;;;;;2.30;2.10;;;25.20;90.30;;;;;;4956762;29;20448;-94
2023/08/24 00:16:41;;;;;;;2.40;2.20;;;25.20;90.70;;;;;;4957089;29;20502;-92
2023/08/24 00:19:08;;;;;;;5.43;2.63;;;25.20;90.30;;;;;;4957319;29;20449;-92
2023/08/24 00:21:35;;;;;;;1.93;1.83;;;25.20;90.30;;;;;;4957960;29;20470;-94
2023/08/24 00:24:02;;;;;;;1.93;1.80;;;25.20;90.30;;;;;;4957495;29;20452;-93
2023/08/24 00:26:29;;;;;;;1.87;1.77;;;25.20;90.30;;;;;;4957603;29;20459;-94
2023/08/24 00:28:56;;;;;;;2.00;1.90;;;25.20;90.30;;;;;;4958204;29;20852;-93
2023/08/24 00:31:23;;;;;;;2.40;2.20;;;25.20;90.30;;;;;;4957198;29;20480;-93
2023/08/24 00:33:51;;;;;;;2.30;2.10;;;25.20;90.30;;;;;;4956921;29;20459;-92
2023/08/24 00:36:18;;;;;;;1.87;1.77;;;25.20;90.30;;;;;;4956832;29;20505;-93
2023/08/24 00:38:50;;;;;;;1.70;1.60;;;25.20;90.30;;;;;;4957147;29;20456;-92
2023/08/24 00:41:17;;;;;;;2.00;1.90;;;25.20;90.30;;;;;;4956993;29;20448;-93
2023/08/24 00:43:44;;;;;;;2.70;2.50;;;25.20;90.30;;;;;;4956670;29;20956;-92
2023/08/24 00:46:11;;;;;;;1.97;1.87;;;25.20;90.30;;;;;;4957015;29;20541;-94
2023/08/24 00:48:38;;;;;;;2.90;1.90;;;25.20;90.30;;;;;;4956686;29;20453;-92
2023/08/24 00:51:06;;;;;;;1.80;1.70;;;25.20;90.30;;;;;;4956671;29;20479;-94
2023/08/24 00:53:34;;;;;;;2.00;1.90;;;25.20;90.30;;;;;;4956663;29;20960;-92
2023/08/24 00:56:01;;;;;;;2.00;1.80;;;25.20;90.30;;;;;;4957649;29;20444;-94
2023/08/24 00:58:28;;;;;;;2.20;2.00;;;25.20;90.30;;;;;;4956594;29;20993;-93
2023/08/24 01:00:56;;;;;;;2.23;2.13;;;25.20;90.30;;;;;;4956473;29;20458;-94
2023/08/24 01:03:24;;;;;;;1.70;1.60;;;25.20;90.30;;;;;;4956338;29;20485;-91
2023/08/24 01:05:51;;;;;;;1.60;1.50;;;25.20;90.30;;;;;;4956470;29;20461;-92
2023/08/24 01:08:19;;;;;;;2.20;2.10;;;25.30;90.30;;;;;;4956522;29;20453;-93
2023/08/24 01:10:53;;;;;;;2.23;2.10;;;25.20;90.30;;;;;;4956548;29;20445;-92
2023/08/24 01:13:26;;;;;;;2.03;1.93;;;25.20;90.30;;;;;;4956635;29;20897;-93
2023/08/24 01:15:59;;;;;;;1.90;1.80;;;25.20;90.30;;;;;;4956794;29;20433;-94
2023/08/24 01:18:27;;;;;;;2.63;2.03;;;25.20;90.30;;;;;;4955964;29;20488;-91
2023/08/24 01:20:55;;;;;;;2.20;2.10;;;25.20;90.30;;;;;;4956345;29;20449;-92
2023/08/24 01:23:37;;;;;;;1.83;1.73;;;25.20;90.30;;;;;;4956091;28;20457;-93
2023/08/24 01:26:10;;;;;;;1.87;1.77;;;25.20;90.30;;;;;;4957381;29;20444;-93
2023/08/24 01:28:37;;;;;;;2.20;2.10;;;25.10;90.20;;;;;;4956074;29;20448;-92
2023/08/24 01:31:05;;;;;;;2.17;2.07;;;25.20;90.30;;;;;;4956165;29;20456;-92
2023/08/24 01:33:32;;;;;;;1.90;1.80;;;25.20;90.30;;;;;;4955971;29;20804;-93
2023/08/24 01:35:59;;;;;;;2.43;1.70;;;25.20;90.30;;;;;;4956141;29;20445;-93
2023/08/24 01:38:25;;;;;;;2.30;2.10;;;25.20;90.30;;;;;;4955887;29;21059;-92
2023/08/24 01:41:00;;;;;;;1.80;1.70;;;25.20;90.30;;;;;;4956228;29;20937;-94
2023/08/24 01:43:33;;;;;;;1.70;1.60;;;25.20;90.30;;;;;;4956264;29;20450;-92
2023/08/24 01:46:02;;;;;;;2.00;1.90;;;25.20;90.30;;;;;;4956099;29;20448;-94
2023/08/24 01:48:30;;;;;;;2.20;2.07;;;25.20;90.30;;;;;;4956793;29;20838;-92
2023/08/24 01:50:58;;;;;;;1.93;1.73;;;25.20;90.30;;;;;;4955586;29;20889;-93
2023/08/24 01:53:26;;;;;;;2.07;1.97;;;25.20;90.30;;;;;;4955872;29;20482;-93
2023/08/24 01:55:54;;;;;;;1.90;1.80;;;25.20;90.30;;;;;;4955807;29;20449;-92
2023/08/24 01:58:21;;;;;;;4.13;1.90;;;25.20;90.30;;;;;;4955530;29;20495;-94
2023/08/24 02:00:49;;;;;;;3.40;2.30;;;25.10;90.30;;;;;;4955835;29;20446;-93
2023/08/24 02:03:16;;;;;;;2.10;2.00;;;25.20;90.30;;;;;;4955385;29;20479;-93
2023/08/24 02:05:43;;;;;;;1.80;1.70;;;25.10;90.20;;;;;;4955765;29;20450;-93
2023/08/24 02:08:09;;;;;;;2.00;1.90;;;25.10;90.20;;;;;;4955610;29;20452;-92
2023/08/24 02:10:36;;;;;;;2.37;2.17;;;25.20;90.30;;;;;;4955700;29;20545;-93
2023/08/24 02:13:03;;;;;;;1.83;1.73;;;25.20;90.30;;;;;;4955324;29;20450;-92
2023/08/24 02:15:30;;;;;;;1.80;1.70;;;25.10;90.20;;;;;;4955338;29;20456;-92
2023/08/24 02:17:59;;;;;;;2.23;2.03;;;25.10;90.20;;;;;;4955580;29;20985;-92
2023/08/24 02:20:24;;;;;;;2.10;2.00;;;25.10;90.20;;;;;;4955636;29;20464;-92
2023/08/24 02:22:51;;;;;;;1.97;1.87;;;25.10;90.20;;;;;;4955231;29;20468;-92
2023/08/24 02:25:18;;;;;;;1.73;1.63;;;25.10;90.20;;;;;;4955401;29;20578;-94
2023/08/24 02:27:45;;;;;;;1.90;1.80;;;25.10;90.20;;;;;;4955203;29;20540;-93
2023/08/24 02:30:13;;;;;;;1.87;1.77;;;25.10;90.20;;;;;;4955154;29;20456;-91
2023/08/24 02:32:40;;;;;;;2.27;2.07;;;25.10;90.20;;;;;;4955123;29;20772;-93
2023/08/24 02:35:09;;;;;;;1.77;1.67;;;25.10;90.20;;;;;;4955410;28;20848;-92
2023/08/24 02:37:36;;;;;;;2.37;1.83;;;25.10;90.20;;;;;;4959124;29;20498;-93
2023/08/24 02:40:03;;;;;;;2.33;1.80;;;25.10;90.20;;;;;;4959016;29;20811;-92
2023/08/24 02:42:31;;;;;;;2.10;2.00;;;25.10;90.20;;;;;;4959014;29;20446;-92
2023/08/24 02:44:59;;;;;;;1.70;1.60;;;25.10;90.20;;;;;;4959071;29;20442;-93
2023/08/24 02:47:25;;;;;;;2.20;2.10;;;25.10;90.20;;;;;;4959199;29;20445;-93
2023/08/24 02:49:52;;;;;;;1.80;1.70;;;25.10;90.20;;;;;;4959174;29;20453;-91
2023/08/24 02:52:20;;;;;;;1.90;1.80;;;25.10;90.20;;;;;;4958964;29;20552;-94
2023/08/24 02:54:47;;;;;;;1.70;1.60;;;25.10;90.20;;;;;;4958886;29;20536;-93
2023/08/24 02:57:14;;;;;;;2.57;2.37;;;25.10;90.20;;;;;;4959088;29;20481;-92
2023/08/24 02:59:43;;;;;;;1.90;1.80;;;25.10;90.20;;;;;;4959001;29;20476;-94
2023/08/24 03:02:10;;;;;;;1.70;1.60;;;25.10;90.20;;;;;;4959580;29;20537;-92
2023/08/24 03:04:37;;;;;;;1.93;1.83;;;25.10;90.20;;;;;;4958887;29;20802;-93
2023/08/24 03:07:07;;;;;;;1.90;1.80;;;25.20;90.30;;;;;;4958929;29;20457;-93
2023/08/24 03:09:35;;;;;;;1.83;1.73;;;25.10;90.20;;;;;;4959107;29;20446;-92
2023/08/24 03:12:02;;;;;;;2.00;1.90;;;25.10;90.20;;;;;;4958756;29;20452;-91
2023/08/24 03:14:36;;;;;;;2.37;2.23;;;25.10;90.20;;;;;;4958960;29;20450;-92
2023/08/24 03:17:04;;;;;;;2.17;2.00;;;25.10;90.20;;;;;;4958452;29;20436;-94
2023/08/24 03:19:31;;;;;;;2.60;2.40;;;25.10;90.20;;;;;;4958649;29;20434;-93
2023/08/24 03:21:57;;;;;;;2.00;1.90;;;25.20;90.30;;;;;;4958497;29;20478;-93
2023/08/24 03:24:24;;;;;;;1.80;1.70;;;25.10;90.20;;;;;;4958715;29;20456;-92
2023/08/24 03:26:52;;;;;;;2.10;2.00;;;25.10;90.20;;;;;;4958534;29;20445;-92
2023/08/24 03:29:19;;;;;;;1.90;1.80;;;25.10;90.20;;;;;;4958418;29;20456;-93
2023/08/24 03:31:46;;;;;;;2.07;1.97;;;25.10;90.20;;;;;;4958274;29;20453;-93
2023/08/24 03:34:13;;;;;;;1.97;1.87;;;25.10;90.20;;;;;;4958140;29;20444;-93
2023/08/24 03:36:39;;;;;;;1.93;1.83;;;25.10;90.20;;;;;;4958291;29;20827;-93
2023/08/24 03:39:06;;;;;;;2.00;1.90;;;25.10;90.20;;;;;;4957852;29;20494;-94
2023/08/24 03:41:33;;;;;;;1.90;1.80;;;25.10;90.20;;;;;;4958852;29;20456;-92
2023/08/24 03:44:02;;;;;;;1.83;1.73;;;25.10;90.20;;;;;;4958320;29;20452;-94
2023/08/24 03:46:29;;;;;;;1.90;1.80;;;25.10;90.20;;;;;;4957916;28;21007;-92
2023/08/24 03:48:56;;;;;;;2.13;2.03;;;25.10;90.60;;;;;;4958103;29;20450;-94
2023/08/24 03:51:22;;;;;;;2.40;2.20;;;25.10;90.20;;;;;;4957979;29;20464;-92
2023/08/24 03:53:49;;;;;;;1.80;1.70;;;25.10;90.20;;;;;;4958005;29;20446;-92
2023/08/24 03:56:16;;;;;;;2.30;2.10;;;25.10;90.20;;;;;;4957845;29;20449;-93
2023/08/24 03:58:43;;;;;;;2.00;1.90;;;25.10;90.20;;;;;;4957871;29;20504;-93
2023/08/24 04:01:12;;;;;;;1.73;1.63;;;25.10;90.20;;;;;;4957654;29;20508;-92
2023/08/24 04:03:39;;;;;;;2.40;2.20;;;25.10;90.20;;;;;;4958710;29;20444;-92
2023/08/24 04:06:07;;;;;;;1.80;1.70;;;25.10;90.20;;;;;;4957870;29;20782;-92
2023/08/24 04:08:34;;;;;;;2.10;1.87;;;25.10;90.20;;;;;;4957754;29;20507;-93
2023/08/24 04:11:01;;;;;;;2.20;2.10;;;25.20;90.30;;;;;;4957427;29;20455;-93
2023/08/24 04:13:28;;;;;;;2.50;2.30;;;25.00;90.20;;;;;;4957481;29;20448;-93
2023/08/24 04:15:54;;;;;;;1.67;1.57;;;25.10;90.20;;;;;;4957399;29;20444;-92
2023/08/24 04:18:23;;;;;;;2.03;1.70;;;25.10;90.20;;;;;;4957493;29;21014;-92
2023/08/24 04:20:52;;;;;;;2.13;1.70;;;25.10;90.20;;;;;;4957455;29;20470;-94
2023/08/24 04:23:24;;;;;;;1.90;1.80;;;25.00;90.20;;;;;;4957228;29;20482;-93
2023/08/24 04:25:51;;;;;;;1.90;1.80;;;25.10;90.20;;;;;;4957314;29;20869;-93
2023/08/24 04:28:17;;;;;;;1.83;1.73;;;25.10;90.20;;;;;;4957314;29;20536;-92
2023/08/24 04:30:50;;;;;;;1.90;1.80;;;25.10;90.30;;;;;;4957480;29;20595;-92
2023/08/24 04:33:17;;;;;;;1.70;1.60;;;25.10;90.20;;;;;;4957072;29;20525;-93
2023/08/24 04:35:47;;;;;;;2.03;1.67;;;25.00;90.20;;;;;;4956979;29;20994;-92
2023/08/24 04:38:14;;;;;;;2.00;1.90;;;25.00;90.20;;;;;;4957201;29;20491;-92
2023/08/24 04:40:51;;;;;;;1.87;1.77;;;25.00;90.20;;;;;;4957867;29;20461;-94
2023/08/24 04:43:18;;;;;;;2.30;2.10;;;25.10;90.20;;;;;;4957344;29;20448;-93
2023/08/24 04:45:46;;;;;;;3.20;2.00;;;25.00;90.20;;;;;;4956597;29;20463;-92
2023/08/24 04:48:13;;;;;;;2.00;1.90;;;25.00;90.20;;;;;;4957103;29;20456;-92
2023/08/24 04:50:40;;;;;;;2.13;1.93;;;25.00;90.20;;;;;;4956874;29;20486;-91
2023/08/24 04:53:08;;;;;;;1.87;1.77;;;25.00;90.20;;;;;;4956802;29;20453;-92
2023/08/24 04:55:35;;;;;;;1.80;1.70;;;25.00;90.20;;;;;;4956651;29;20928;-91
2023/08/24 04:58:02;;;;;;;2.30;2.10;;;25.00;90.60;;;;;;4956181;28;20476;-92
2023/08/24 05:00:29;;;;;;;2.07;1.87;;;25.00;90.30;;;;;;4956251;29;20455;-92
2023/08/24 05:02:55;;;;;;;2.30;2.10;;;25.00;90.20;;;;;;4956155;29;20485;-94
2023/08/24 05:05:22;;;;;;;2.20;2.10;;;25.00;90.20;;;;;;4948041;29;20454;-92
2023/08/24 05:07:49;;;;;;;1.93;1.83;;;25.00;90.20;;;;;;4937298;29;20465;-94
2023/08/24 05:10:17;;;;;;;1.93;1.83;;;25.00;90.20;;;;;;4937557;29;20450;-93
2023/08/24 05:12:44;;;;;;;1.90;1.80;;;25.00;90.20;;;;;;4937228;29;20452;-92
2023/08/24 05:15:12;;;;;;;1.57;1.47;;;25.00;90.20;;;;;;4937485;29;20450;-91
2023/08/24 05:17:39;;;;;;;1.80;1.70;;;25.00;90.20;;;;;;4937042;29;20445;-92
2023/08/24 05:20:07;;;;;;;1.90;1.80;;;25.00;90.20;;;;;;4937311;29;20824;-93
2023/08/24 05:22:34;;;;;;;1.60;1.50;;;25.00;90.20;;;;;;4936889;29;20982;-93
2023/08/24 05:25:01;;;;;;;1.73;1.63;;;25.00;90.20;;;;;;4937191;29;20536;-91
2023/08/24 05:27:29;;;;;;;2.10;2.00;;;25.00;90.20;;;;;;4937132;29;20481;-92
2023/08/24 05:29:56;;;;;;;2.17;1.97;;;25.00;90.20;;;;;;4936860;29;20880;-92
2023/08/24 05:32:23;;;;;;;2.10;2.00;;;25.00;90.20;;;;;;4937093;29;20469;-93
2023/08/24 05:34:50;;;;;;;2.50;2.23;;;25.00;90.20;;;;;;4937050;29;20527;-94
2023/08/24 05:37:17;;;;;;;2.23;1.93;;;25.00;90.20;;;;;;4937194;29;20937;-94
2023/08/24 05:39:43;;;;;;;1.87;1.77;;;25.00;90.20;;;;;;4936955;29;20504;-91
2023/08/24 05:42:10;;;;;;;2.07;1.97;;;25.10;90.20;;;;;;4936914;29;20534;-92
2023/08/24 05:44:39;;;;;;;1.83;1.73;;;25.00;90.20;;;;;;4936837;29;20531;-92
2023/08/24 05:47:06;;;;;;;2.10;2.00;;;25.00;90.20;;;;;;4936681;29;20937;-92
2023/08/24 05:49:33;;;;;;;1.87;1.77;;;25.00;90.20;;;;;;4936874;29;20957;-91
2023/08/24 05:52:00;;;;;;;2.47;2.00;;;25.00;90.20;;;;;;4936702;29;20551;-92
2023/08/24 05:54:27;;;;;;;2.30;2.10;;;25.00;90.20;;;;;;4936316;29;20439;-94
2023/08/24 05:56:53;;;;;;;1.73;1.63;;;25.00;90.10;;;;;;4936929;29;20785;-92
2023/08/24 05:59:21;;;;;;;1.90;1.80;;;25.00;90.10;;;;;;4939076;29;20491;-93
2023/08/24 06:01:49;;;;;;;3.53;2.27;;;24.90;90.10;;;;;;4955733;29;20484;-92
2023/08/24 06:04:16;;;;;;;4.60;3.13;;;25.00;90.10;;;;;;4938669;29;20937;-91
2023/08/24 06:06:43;;;;;;;3.57;3.27;;;25.00;89.20;;;;;;4955507;29;20531;-93
2023/08/24 06:09:10;;;;;;;7.03;4.20;;;25.00;88.90;;;;;;4955277;29;20540;-92
2023/08/24 06:11:37;;;;;;;5.33;3.87;;;25.00;89.00;;;;;;4954722;29;20957;-91
2023/08/24 06:14:04;;;;;;;6.10;5.60;;;25.00;89.20;;;;;;4955314;29;20460;-91
2023/08/24 06:16:30;;;;;;;7.90;4.63;;;24.90;89.40;;;;;;4955777;29;20528;-91
2023/08/24 06:18:59;;;;;;;5.50;5.00;;;24.80;89.90;;;;;;4955629;29;20489;-91
2023/08/24 06:21:26;;;;;;;7.53;4.87;;;24.80;90.20;;;;;;4955505;29;20477;-91
2023/08/24 06:23:53;;;;;;;5.77;5.10;;;24.70;90.30;;;;;;4955330;29;20544;-92
2023/08/24 06:26:19;;;;;;;6.93;4.87;;;24.70;90.50;;;;;;4955157;29;20544;-91
2023/08/24 06:28:47;;;;;;;8.60;5.67;;;24.70;90.60;;;;;;4955195;29;20544;-93
2023/08/24 06:31:14;;;;;;;6.70;5.23;;;24.70;90.70;;;;;;4955389;29;20845;-91
2023/08/24 06:33:41;;;;;;;6.37;5.73;;;24.70;90.70;;;;;;4955154;29;20541;-93
2023/08/24 06:36:09;;;;;;;9.33;6.00;;;24.70;90.70;;;;;;4955460;29;20536;-94
2023/08/24 06:38:36;;;;;;;7.10;5.60;;;24.70;90.70;;;;;;4955068;29;20478;-94
2023/08/24 06:41:03;;;;;;;6.63;5.90;;;24.70;90.70;;;;;;4955234;29;20482;-93
2023/08/24 06:43:30;;;;;;;9.10;6.50;;;24.70;90.80;;;;;;4955354;29;20548;-93
2023/08/24 06:45:57;;;;;;;6.70;6.00;;;24.70;91.00;;;;;;4956173;29;20544;-95
2023/08/24 06:48:27;;;;;;;6.70;6.10;;;24.70;91.40;;;;;;4952502;29;21021;-92
2023/08/24 06:50:53;;;;;;;7.00;6.20;;;24.70;91.00;;;;;;4935648;29;20880;-92
2023/08/24 06:53:22;;;;;;;7.50;6.80;;;24.70;90.90;;;;;;4935766;29;20544;-92
2023/08/24 06:55:55;;;;;;;11.60;7.23;;;24.70;91.00;;;;;;4935781;29;20449;-91
2023/08/24 06:58:22;;;;;;;10.23;6.90;;;24.70;91.00;;;;;;4935747;29;21002;-90
2023/08/24 07:00:51;;;;;;;8.53;6.93;;;24.70;91.00;;;;;;4941121;29;20547;-93
2023/08/24 07:03:59;;;;;;;7.93;6.07;;;24.70;91.00;;;;;;4936295;29;20485;-93
2023/08/24 07:06:25;;;;;;;9.00;6.83;;;24.70;91.10;;;;;;4936160;29;20442;-93
2023/08/24 07:08:54;;;;;;;9.10;7.13;;;24.70;91.20;;;;;;4936178;29;20538;-93
2023/08/24 07:11:21;;;;;;;7.60;6.40;;;24.70;91.10;;;;;;4936390;29;20917;-93
2023/08/24 07:13:48;;;;;;;7.10;5.80;;;24.70;91.20;;;;;;4936028;29;20446;-95
2023/08/24 07:16:15;;;;;;;9.67;5.73;;;24.70;91.20;;;;;;4935887;29;20458;-94
2023/08/24 07:18:42;;;;;;;7.07;6.33;;;24.70;91.70;;;;;;4937163;29;20568;-95
2023/08/24 07:21:11;;;;;;;8.00;6.03;;;24.80;91.40;;;;;;4936212;29;20530;-96
2023/08/24 07:23:44;;;;;;;6.73;5.77;;;24.80;91.30;;;;;;4939443;29;20466;-95
2023/08/24 07:26:14;;;;;;;7.43;6.33;;;24.80;91.30;;;;;;4940178;29;20811;-95
2023/08/24 07:28:46;;;;;;;7.27;6.57;;;24.90;91.30;;;;;;4940273;29;20441;-96
2023/08/24 07:31:16;;;;;;;8.30;6.53;;;24.90;91.30;;;;;;4939974;29;20454;-95
2023/08/24 07:33:46;;;;;;;7.63;6.93;;;24.90;91.40;;;;;;4939697;29;20442;-96
2023/08/24 07:36:14;;;;;;;13.43;6.83;;;24.90;91.50;;;;;;4940637;29;20445;-96
2023/08/24 07:39:03;;;;;;;8.47;6.13;;;24.90;91.40;;;;;;4939806;29;20478;-95
2023/08/24 07:41:31;;;;;;;7.53;6.80;;;24.90;91.30;;;;;;4935881;29;20460;-92
2023/08/24 07:43:58;;;;;;;8.10;5.57;;;25.00;91.40;;;;;;4940010;29;20883;-93
2023/08/24 07:46:25;;;;;;;7.13;6.53;;;25.00;91.40;;;;;;4938974;29;20447;-93
2023/08/24 07:48:52;;;;;;;6.57;5.73;;;25.00;91.40;;;;;;4938886;29;20949;-93
2023/08/24 07:51:19;;;;;;;8.67;6.30;;;25.00;91.50;;;;;;4938669;29;20490;-96
2023/08/24 07:53:46;;;;;;;4.90;4.50;;;25.00;91.40;;;;;;4939554;29;20504;-93
2023/08/24 07:56:13;;;;;;;6.43;5.83;;;25.00;91.40;;;;;;4938820;29;20938;-93
2023/08/24 07:58:42;;;;;;;10.07;5.60;;;25.00;91.40;;;;;;4938743;29;20461;-94
2023/08/24 08:01:08;;;;;;;7.83;6.20;;;25.00;91.40;;;;;;4938887;29;20473;-93
2023/08/24 08:03:35;;;;;;;6.77;5.30;;;25.00;91.40;;;;;;4939483;29;20536;-96
2023/08/24 08:06:03;;;;;;;6.20;5.20;;;25.00;91.20;;;;;;4938560;29;20477;-93
2023/08/24 08:08:30;;;;;;;9.63;5.33;;;25.00;91.20;;;;;;4938781;29;20478;-93
2023/08/24 08:11:01;;;;;;;6.90;5.10;;;25.00;91.20;;;;;;4938678;29;20530;-93
2023/08/24 08:13:29;;;;;;;7.00;5.17;;;25.10;91.10;;;;;;4938451;29;20508;-93
2023/08/24 08:16:04;;;;;;;6.77;5.20;;;25.10;91.10;;;;;;4939969;29;20455;-91
2023/08/24 08:32:15;;;;;;;5.13;4.63;;;25.10;91.10;;;;;;5793653;23;20480;-91
2023/08/24 08:34:43;;;;;;;8.63;4.60;;;25.10;91.10;;;;;;4937434;29;20442;-91
2023/08/24 08:37:10;;;;;;;4.90;4.07;;;25.10;91.10;;;;;;4937718;29;20518;-91
2023/08/24 08:39:37;;;;;;;6.10;4.70;;;25.10;91.00;;;;;;4937973;29;21001;-91
2023/08/24 08:42:05;;;;;;;4.83;4.40;;;25.10;91.40;;;;;;4927426;29;20450;-91
2023/08/24 08:44:34;;;;;;;5.30;4.07;;;25.20;91.10;;;;;;4937927;29;21013;-90
2023/08/24 08:47:01;;;;;;;4.63;4.17;;;25.20;91.00;;;;;;4937717;29;20809;-92
2023/08/24 08:49:32;;;;;;;4.67;4.20;;;25.20;91.10;;;;;;4919285;29;20442;-91
2023/08/24 08:51:59;;;;;;;4.87;4.40;;;25.20;91.00;;;;;;4935775;29;20470;-91
2023/08/24 08:54:27;;;;;;;4.97;4.17;;;25.20;91.00;;;;;;4937922;29;20868;-91
2023/08/24 08:56:54;;;;;;;4.90;4.43;;;25.20;91.00;;;;;;4937880;29;20950;-91
2023/08/24 08:59:23;;;;;;;4.47;4.17;;;25.20;91.00;;;;;;4937632;29;20851;-89
2023/08/24 09:01:52;;;;;;;8.00;3.80;;;25.20;91.00;;;;;;4938721;29;20501;-91
2023/08/24 09:04:19;;;;;;;10.43;3.70;;;25.20;91.10;;;;;;4939480;29;20457;-92
2023/08/24 09:06:49;;;;;;;4.17;3.60;;;25.20;91.10;;;;;;4940256;29;20446;-91
2023/08/24 09:09:16;;;;;;;4.10;3.70;;;25.20;91.10;;;;;;4939896;29;20481;-91
2023/08/24 09:11:47;;;;;;;4.80;4.10;;;25.20;91.10;;;;;;4941415;29;20451;-92
2023/08/24 09:14:14;;;;;;;4.13;3.80;;;25.20;91.20;;;;;;4947202;29;20450;-93
2023/08/24 09:16:43;;;;;;;4.57;3.43;;;25.20;91.20;;;;;;4944909;29;20481;-94
2023/08/24 09:19:14;;;;;;;7.30;3.67;;;25.20;91.10;;;;;;4945857;29;20480;-92
2023/08/24 09:21:42;;;;;;;4.03;3.70;;;25.20;91.10;;;;;;4943348;29;20472;-94
2023/08/24 09:24:17;;;;;;;4.00;3.53;;;25.20;91.20;;;;;;4945913;29;20457;-95
2023/08/24 09:26:44;;;;;;;4.27;3.97;;;25.20;91.10;;;;;;4941053;29;20778;-93
2023/08/24 09:29:15;;;;;;;4.27;3.97;;;25.20;91.10;;;;;;4937108;29;20459;-92
2023/08/24 09:31:44;;;;;;;4.27;3.93;;;25.20;91.50;;;;;;4937116;29;20455;-95
2023/08/24 09:34:11;;;;;;;5.17;4.03;;;25.20;91.10;;;;;;4936810;29;20993;-94
2023/08/24 09:36:38;;;;;;;4.70;3.80;;;25.20;91.10;;;;;;4937793;29;20457;-95
2023/08/24 09:39:06;;;;;;;4.00;3.00;;;25.20;91.10;;;;;;4937222;29;20706;-95
2023/08/24 09:41:51;;;;;;;3.37;3.07;;;25.20;91.10;;;;;;4936910;29;20462;-92
2023/08/24 09:44:18;;;;;;;4.03;3.27;;;25.20;91.20;;;;;;4933266;29;20451;-92
2023/08/24 09:46:45;;;;;;;3.50;3.10;;;25.20;91.10;;;;;;4936548;29;20486;-92
2023/08/24 09:49:12;;;;;;;7.20;3.13;;;25.20;91.10;;;;;;4936427;29;20539;-92
2023/08/24 09:51:41;;;;;;;3.63;2.90;;;25.20;91.10;;;;;;4936570;29;20561;-91
2023/08/24 09:54:09;;;;;;;4.40;4.00;;;25.20;91.00;;;;;;4936456;29;20538;-93
2023/08/24 09:56:38;;;;;;;3.53;3.23;;;25.20;91.10;;;;;;4936715;29;20875;-92
2023/08/24 09:59:13;;;;;;;3.23;3.03;;;25.20;91.10;;;;;;4936262;29;20454;-92
2023/08/24 10:01:43;;;;;;;3.43;3.13;;;25.20;91.10;;;;;;4936361;29;20454;-92
2023/08/24 10:04:11;;;;;;;4.43;3.53;;;25.20;91.10;;;;;;4936304;29;20494;-92
2023/08/24 10:06:40;;;;;;;3.20;2.90;;;25.20;91.00;;;;;;4936633;29;20445;-92
2023/08/24 10:09:09;;;;;;;4.70;2.97;;;25.20;91.10;;;;;;4936285;29;20534;-92
2023/08/24 10:11:56;;;;;;;4.80;4.13;;;25.20;91.10;;;;;;4936495;29;20949;-92
2023/08/24 10:14:30;;;;;;;4.00;3.60;;;25.20;91.00;;;;;;4936493;29;20452;-93
2023/08/24 10:16:57;;;;;;;4.70;3.90;;;25.20;91.00;;;;;;4936459;29;20434;-92
2023/08/24 10:19:26;;;;;;;3.47;3.13;;;25.20;91.10;;;;;;4936157;29;20587;-92
2023/08/24 10:21:57;;;;;;;4.20;3.30;;;25.20;91.00;;;;;;4936108;29;20840;-93
2023/08/24 10:24:24;;;;;;;3.20;3.00;;;25.20;91.00;;;;;;4936390;29;20446;-92
2023/08/24 10:26:51;;;;;;;3.63;3.33;;;25.20;91.00;;;;;;4936160;29;20458;-92
2023/08/24 10:29:19;;;;;;;4.70;3.00;;;25.20;91.00;;;;;;4936147;29;20921;-92
2023/08/24 10:31:49;;;;;;;3.43;3.20;;;25.20;91.00;;;;;;4936160;29;20446;-93
2023/08/24 10:34:16;;;;;;;4.00;3.70;;;25.20;91.00;;;;;;4936026;29;20488;-92
2023/08/24 10:36:43;;;;;;;4.13;3.37;;;25.20;91.00;;;;;;4936129;29;20545;-92
2023/08/24 10:39:10;;;;;;;3.13;2.83;;;25.20;91.00;;;;;;4935882;29;20545;-94
2023/08/24 10:41:51;;;;;;;3.30;3.10;;;25.20;91.00;;;;;;4936061;29;20455;-92
2023/08/24 10:44:23;;;;;;;2.60;2.40;;;25.20;91.00;;;;;;4936035;29;20448;-91
2023/08/24 10:47:13;;;;;;;3.90;3.37;;;25.20;91.00;;;;;;4936272;29;20447;-92
2023/08/24 10:49:41;;;;;;;3.07;2.57;;;25.20;91.00;;;;;;4936255;29;20439;-92
2023/08/24 10:52:21;;;;;;;3.70;3.20;;;25.20;91.00;;;;;;4935857;29;20453;-93
2023/08/24 10:54:49;;;;;;;3.20;2.90;;;25.20;91.00;;;;;;4936201;29;20541;-93
2023/08/24 10:57:21;;;;;;;2.83;2.40;;;25.20;91.00;;;;;;4937937;29;20446;-92
2023/08/24 11:00:05;;;;;;;3.17;2.90;;;25.20;91.00;;;;;;4939456;29;20567;-92
2023/08/24 11:02:42;;;;;;;3.90;3.63;;;25.20;91.00;;;;;;4939914;29;20435;-92
2023/08/24 11:05:17;;;;;;;3.70;3.03;;;25.20;91.00;;;;;;4939640;29;20951;-92
2023/08/24 11:07:51;;;;;;;3.07;2.87;;;25.20;91.00;;;;;;4939810;29;20528;-92
2023/08/24 11:10:19;;;;;;;3.03;2.83;;;25.20;91.00;;;;;;4939737;29;20996;-92
2023/08/24 11:13:11;;;;;;;2.73;2.53;;;25.20;91.00;;;;;;4939732;29;20442;-92
2023/08/24 11:15:39;;;;;;;2.60;2.40;;;25.30;91.00;;;;;;4939331;29;20489;-92
2023/08/24 11:18:16;;;;;;;3.20;2.90;;;25.20;91.00;;;;;;4939667;29;20446;-92
2023/08/24 11:20:45;;;;;;;3.00;2.80;;;25.20;91.00;;;;;;4939399;29;20481;-93
2023/08/24 11:23:12;;;;;;;2.90;2.70;;;25.20;91.00;;;;;;4939334;29;20439;-93
2023/08/24 11:25:39;;;;;;;2.90;2.70;;;25.20;91.00;;;;;;4939309;29;20449;-93
2023/08/24 11:28:06;;;;;;;2.97;2.77;;;25.20;91.00;;;;;;4939077;29;21428;-92
2023/08/24 11:30:34;;;;;;;2.67;2.47;;;25.20;91.00;;;;;;4938998;29;20454;-92
2023/08/24 11:33:01;;;;;;;2.70;2.50;;;25.20;91.00;;;;;;4939025;29;20484;-92
2023/08/24 11:35:29;;;;;;;3.13;2.83;;;25.20;91.00;;;;;;4938785;29;21007;-93
2023/08/24 11:37:57;;;;;;;2.33;2.23;;;25.30;91.00;;;;;;4938980;29;20845;-92
2023/08/24 11:40:26;;;;;;;3.30;3.00;;;25.20;91.00;;;;;;4939198;29;20487;-92
2023/08/24 11:42:54;;;;;;;2.87;2.67;;;25.20;91.00;;;;;;4939341;29;20489;-92
2023/08/24 11:45:22;;;;;;;2.57;2.37;;;25.30;91.00;;;;;;4938952;29;20974;-93
2023/08/24 11:47:49;;;;;;;3.30;2.40;;;25.30;91.00;;;;;;4939261;29;20487;-93
2023/08/24 11:50:17;;;;;;;3.40;3.13;;;25.30;91.00;;;;;;4938598;29;20976;-92
2023/08/24 11:52:45;;;;;;;2.67;2.43;;;25.30;91.10;;;;;;4938951;29;20453;-92
2023/08/24 11:55:12;;;;;;;2.37;2.17;;;25.30;91.00;;;;;;4939042;29;20449;-92
2023/08/24 11:57:39;;;;;;;2.83;2.63;;;25.30;91.00;;;;;;4938681;29;20447;-92
2023/08/24 12:00:08;;;;;;;2.50;2.30;;;25.30;91.00;;;;;;4938543;29;20513;-92
2023/08/24 12:02:36;;;;;;;3.33;3.03;;;25.30;91.00;;;;;;4938793;29;20454;-93
2023/08/24 12:05:07;;;;;;;2.30;2.10;;;25.20;91.00;;;;;;4938524;29;20450;-93
2023/08/24 12:07:34;;;;;;;2.60;2.40;;;25.30;91.00;;;;;;4939180;29;20451;-92
2023/08/24 12:10:03;;;;;;;3.30;2.23;;;25.20;91.00;;;;;;4937911;29;20965;-92
2023/08/24 12:12:30;;;;;;;3.27;2.97;;;25.20;91.00;;;;;;4938574;29;20451;-92
2023/08/24 12:14:58;;;;;;;2.60;2.40;;;25.30;91.00;;;;;;4938501;29;20455;-93
2023/08/24 12:17:25;;;;;;;2.60;2.40;;;25.20;91.00;;;;;;4938252;29;20458;-92
2023/08/24 12:19:59;;;;;;;2.87;2.67;;;25.40;91.10;;;;;;4938120;29;20546;-93
2023/08/24 12:22:26;;;;;;;2.37;2.17;;;25.30;91.00;;;;;;4938445;29;20522;-92
2023/08/24 12:24:53;;;;;;;2.57;2.37;;;25.30;91.00;;;;;;4938268;29;20458;-93
2023/08/24 12:27:24;;;;;;;2.17;1.97;;;25.30;91.00;;;;;;4938233;29;20534;-92
2023/08/24 12:29:51;;;;;;;5.83;2.43;;;25.30;91.00;;;;;;4952323;29;20456;-93
2023/08/24 12:32:20;;;;;;;4.73;2.70;;;25.30;91.00;;;;;;4937976;29;20473;-91
2023/08/24 12:34:47;;;;;;;3.10;2.50;;;25.30;91.00;;;;;;4938478;29;20478;-92
2023/08/24 12:37:13;;;;;;;2.67;2.47;;;25.30;91.00;;;;;;4937731;29;20594;-92
2023/08/24 12:39:41;;;;;;;2.43;2.27;;;25.30;91.00;;;;;;4937855;29;20464;-93
2023/08/24 12:42:07;;;;;;;2.30;2.10;;;25.30;91.00;;;;;;4937697;29;20492;-92
2023/08/24 12:44:36;;;;;;;2.00;1.90;;;25.40;91.50;;;;;;4937752;29;20886;-92
2023/08/24 12:47:04;;;;;;;3.13;2.20;;;25.30;91.10;;;;;;4937756;29;20439;-92
2023/08/24 12:49:31;;;;;;;3.40;2.33;;;25.30;91.10;;;;;;4938037;29;20456;-92
2023/08/24 12:51:58;;;;;;;2.67;2.47;;;25.30;91.10;;;;;;4937617;29;20467;-92
2023/08/24 12:54:25;;;;;;;2.63;2.43;;;25.30;91.10;;;;;;4937415;29;21330;-93
2023/08/24 12:56:52;;;;;;;2.10;2.00;;;25.30;91.00;;;;;;4937481;29;20457;-92
2023/08/24 12:59:18;;;;;;;3.73;2.50;;;25.30;91.10;;;;;;4937871;29;20473;-92
2023/08/24 13:01:47;;;;;;;2.60;2.40;;;25.30;91.10;;;;;;4937078;29;20572;-93
2023/08/24 13:04:13;;;;;;;3.53;2.40;;;25.30;91.10;;;;;;4937344;29;20540;-92
2023/08/24 13:06:40;;;;;;;2.43;2.23;;;25.30;91.10;;;;;;4937254;29;20493;-92